createdAt,value
2022-10-14T00:01:13.997Z,99.90
2022-10-14T00:04:02.908Z,99.90
2022-10-14T00:06:33.183Z,99.90
2022-10-14T00:09:05.273Z,99.90
2022-10-14T00:11:36.852Z,99.90
2022-10-14T00:14:12.712Z,99.90
2022-10-14T00:16:42.036Z,99.90
2022-10-14T00:19:09.391Z,99.90
2022-10-14T00:21:38.333Z,99.90
2022-10-14T00:24:06.393Z,99.90
2022-10-14T00:26:38.360Z,99.90
2022-10-14T00:29:11.464Z,99.90
2022-10-14T00:31:39.081Z,99.90
2022-10-14T00:34:06.081Z,99.90
2022-10-14T00:36:33.394Z,99.90
2022-10-14T00:39:00.869Z,99.90
2022-10-14T00:41:32.754Z,99.90
2022-10-14T00:44:20.169Z,99.90
2022-10-14T00:46:49.732Z,99.90
2022-10-14T00:49:31.143Z,99.90
2022-10-14T00:52:05.685Z,99.90
2022-10-14T00:54:40.544Z,99.90
2022-10-14T00:57:10.725Z,99.90
2022-10-14T00:59:39.027Z,99.90
2022-10-14T01:02:06.425Z,99.90
2022-10-14T01:04:37.662Z,99.90
2022-10-14T01:07:28.819Z,99.90
2022-10-14T01:10:14.643Z,99.90
2022-10-14T01:12:44.544Z,99.90
2022-10-14T01:15:26.158Z,99.90
2022-10-14T01:18:14.178Z,99.90
2022-10-14T01:20:57.020Z,99.90
2022-10-14T01:23:33.529Z,99.90
2022-10-14T01:26:23.202Z,99.90
2022-10-14T01:29:06.579Z,99.90
2022-10-14T01:31:38.395Z,99.90
2022-10-14T01:34:09.692Z,99.90
2022-10-14T01:36:47.963Z,99.90
2022-10-14T01:39:29.392Z,99.90
2022-10-14T01:42:03.930Z,99.90
2022-10-14T01:44:35.435Z,99.90
2022-10-14T01:47:06.697Z,99.90
2022-10-14T01:49:43.969Z,99.90
2022-10-14T01:52:19.384Z,99.90
2022-10-14T01:54:50.074Z,99.90
2022-10-14T01:57:22.189Z,99.90
2022-10-14T01:59:50.401Z,99.90
2022-10-14T02:02:18.467Z,99.90
2022-10-14T02:04:45.931Z,99.90
2022-10-14T02:07:20.992Z,99.90
2022-10-14T02:09:57.435Z,99.90
2022-10-14T02:12:45.500Z,99.90
2022-10-14T02:15:19.900Z,99.90
2022-10-14T02:18:02.055Z,99.90
2022-10-14T02:20:41.472Z,99.90
2022-10-14T02:23:20.663Z,99.90
2022-10-14T02:25:51.367Z,99.90
2022-10-14T02:28:21.229Z,99.90
2022-10-14T02:30:57.127Z,99.90
2022-10-14T02:33:30.949Z,99.90
2022-10-14T02:35:59.117Z,99.90
2022-10-14T02:38:26.595Z,99.90
2022-10-14T02:40:53.839Z,99.90
2022-10-14T02:43:21.307Z,99.90
2022-10-14T02:45:48.452Z,99.90
2022-10-14T02:48:18.147Z,99.90
2022-10-14T02:50:45.795Z,99.90
2022-10-14T02:53:17.198Z,99.90
2022-10-14T02:55:46.854Z,99.90
2022-10-14T02:58:14.311Z,99.90
2022-10-14T03:03:37.707Z,99.90
2022-10-14T03:06:05.185Z,99.90
2022-10-14T03:08:34.692Z,99.90
2022-10-14T03:11:02.153Z,99.90
2022-10-14T03:13:31.765Z,99.90
2022-10-14T03:15:58.993Z,99.90
2022-10-14T03:18:26.353Z,99.90
2022-10-14T03:20:53.620Z,99.90
2022-10-14T03:23:23.173Z,99.90
2022-10-14T03:25:50.277Z,99.90
2022-10-14T03:28:17.959Z,99.90
2022-10-14T03:30:44.918Z,99.90
2022-10-14T03:33:15.236Z,99.90
2022-10-14T03:35:42.903Z,99.90
2022-10-14T03:38:10.340Z,99.90
2022-10-14T03:40:37.425Z,99.90
2022-10-14T03:43:04.731Z,99.90
2022-10-14T03:45:34.023Z,99.90
2022-10-14T03:48:01.111Z,99.90
2022-10-14T03:50:28.983Z,99.90
2022-10-14T03:52:58.681Z,99.90
2022-10-14T03:55:25.780Z,99.90
2022-10-14T03:57:53.220Z,99.90
2022-10-14T04:00:20.339Z,99.90
2022-10-14T04:02:49.831Z,99.90
2022-10-14T04:05:21.473Z,99.90
2022-10-14T04:07:51.273Z,99.90
2022-10-14T04:10:20.817Z,99.90
2022-10-14T04:12:48.030Z,99.90
2022-10-14T04:15:17.403Z,99.90
2022-10-14T04:17:44.502Z,99.90
2022-10-14T04:20:12.262Z,99.90
2022-10-14T04:22:39.417Z,99.90
2022-10-14T04:25:07.232Z,99.90
2022-10-14T04:27:34.588Z,99.90
2022-10-14T04:30:01.894Z,99.90
2022-10-14T04:32:29.672Z,99.90
2022-10-14T04:34:56.979Z,99.90
2022-10-14T04:37:24.122Z,99.90
2022-10-14T04:39:53.695Z,99.90
2022-10-14T04:42:21.257Z,99.90
2022-10-14T04:44:48.673Z,99.90
2022-10-14T04:47:18.360Z,99.90
2022-10-14T04:49:48.048Z,99.90
2022-10-14T04:52:15.246Z,99.90
2022-10-14T04:54:44.648Z,99.90
2022-10-14T04:57:11.904Z,99.90
2022-10-14T04:59:38.945Z,99.90
2022-10-14T05:02:06.073Z,99.90
2022-10-14T05:04:33.404Z,99.90
2022-10-14T05:07:00.394Z,99.90
2022-10-14T05:09:27.777Z,99.90
2022-10-14T05:11:54.797Z,99.90
2022-10-14T05:14:22.994Z,99.90
2022-10-14T05:16:50.302Z,99.90
2022-10-14T05:19:19.806Z,99.90
2022-10-14T05:21:46.873Z,99.90
2022-10-14T05:24:14.445Z,99.90
2022-10-14T05:26:41.971Z,99.90
2022-10-14T05:29:11.873Z,99.90
2022-10-14T05:31:39.369Z,99.90
2022-10-14T05:34:08.888Z,99.90
2022-10-14T05:36:36.158Z,99.90
2022-10-14T05:39:07.011Z,99.90
2022-10-14T05:41:34.019Z,99.90
2022-10-14T05:44:01.340Z,99.90
2022-10-14T05:46:28.558Z,99.90
2022-10-14T05:48:57.290Z,99.90
2022-10-14T05:51:24.614Z,99.90
2022-10-14T05:53:51.850Z,99.90
2022-10-14T05:56:18.834Z,99.90
2022-10-14T05:58:48.582Z,99.90
2022-10-14T06:01:15.903Z,99.90
2022-10-14T06:03:43.157Z,99.90
2022-10-14T06:06:14.273Z,99.90
2022-10-14T06:08:41.631Z,99.90
2022-10-14T06:11:08.675Z,99.90
2022-10-14T06:13:36.352Z,99.90
2022-10-14T06:16:05.170Z,99.90
2022-10-14T06:18:34.678Z,99.90
2022-10-14T06:21:02.577Z,99.90
2022-10-14T06:23:29.773Z,99.90
2022-10-14T06:25:56.830Z,99.90
2022-10-14T06:28:24.285Z,99.90
2022-10-14T06:30:55.576Z,99.90
2022-10-14T06:33:25.064Z,99.90
2022-10-14T06:35:52.370Z,99.90
2022-10-14T06:38:19.598Z,99.90
2022-10-14T06:40:50.808Z,99.90
2022-10-14T06:43:18.597Z,99.90
2022-10-14T06:45:49.684Z,99.90
2022-10-14T06:48:16.711Z,99.90
2022-10-14T06:50:44.220Z,99.90
2022-10-14T06:53:11.346Z,99.90
2022-10-14T06:55:38.471Z,99.90
2022-10-14T06:58:06.168Z,99.90
2022-10-14T07:00:33.162Z,99.90
2022-10-14T07:03:00.283Z,99.90
2022-10-14T07:05:28.033Z,99.90
2022-10-14T07:07:56.937Z,99.90
2022-10-14T07:10:24.301Z,99.90
2022-10-14T07:12:54.912Z,99.90
2022-10-14T07:15:22.222Z,99.90
2022-10-14T07:17:49.274Z,99.90
2022-10-14T07:20:16.753Z,99.90
2022-10-14T07:22:43.915Z,99.90
2022-10-14T07:25:11.383Z,99.90
2022-10-14T07:27:41.194Z,99.90
2022-10-14T07:30:10.663Z,99.90
2022-10-14T07:32:43.779Z,99.90
2022-10-14T07:35:12.959Z,99.90
2022-10-14T07:37:40.029Z,99.90
2022-10-14T07:40:08.032Z,92.00
2022-10-14T07:42:35.204Z,79.70
2022-10-14T07:45:02.306Z,69.40
2022-10-14T07:47:30.361Z,62.10
2022-10-14T07:50:00.398Z,58.60
2022-10-14T07:52:27.745Z,58.00
2022-10-14T07:54:55.405Z,56.60
2022-10-14T07:57:22.857Z,56.40
2022-10-14T07:59:50.115Z,58.70
2022-10-14T08:02:17.925Z,59.30
2022-10-14T08:04:45.541Z,59.90
2022-10-14T08:07:15.296Z,63.50
2022-10-14T08:09:42.664Z,66.00
2022-10-14T08:12:09.837Z,69.30
2022-10-14T08:14:39.625Z,71.50
2022-10-14T08:17:06.797Z,74.20
2022-10-14T08:19:36.619Z,74.10
2022-10-14T08:22:04.086Z,71.50
2022-10-14T08:24:33.547Z,68.20
2022-10-14T08:27:00.751Z,67.50
2022-10-14T08:29:30.275Z,70.50
2022-10-14T08:31:59.969Z,72.50
2022-10-14T08:34:27.148Z,74.40
2022-10-14T08:36:54.462Z,69.70
2022-10-14T08:39:22.011Z,66.20
2022-10-14T08:41:58.114Z,64.70
2022-10-14T08:44:49.691Z,61.00
2022-10-14T08:47:21.958Z,56.00
2022-10-14T08:49:52.783Z,53.30
2022-10-14T08:52:45.259Z,53.10
2022-10-14T08:55:58.789Z,54.50
2022-10-14T08:58:48.601Z,53.50
2022-10-14T09:01:24.822Z,54.30
2022-10-14T09:04:06.909Z,57.20
2022-10-14T09:06:36.718Z,60.30
2022-10-14T09:09:11.706Z,63.60
2022-10-14T09:11:45.951Z,67.10
2022-10-14T09:14:22.399Z,69.70
2022-10-14T09:16:54.566Z,71.10
2022-10-14T09:19:38.322Z,68.10
2022-10-14T09:22:14.874Z,66.50
2022-10-14T09:24:45.293Z,67.60
2022-10-14T09:27:18.453Z,68.40
2022-10-14T09:30:06.357Z,69.70
2022-10-14T09:32:46.440Z,70.90
2022-10-14T09:35:36.632Z,71.30
2022-10-14T09:38:04.975Z,72.60
2022-10-14T09:40:45.777Z,70.50
2022-10-14T09:43:20.268Z,65.50
2022-10-14T09:45:53.481Z,62.60
2022-10-14T09:48:32.398Z,60.80
2022-10-14T09:51:23.091Z,59.50
2022-10-14T09:53:55.432Z,60.30
2022-10-14T09:56:30.144Z,63.20
2022-10-14T09:58:58.424Z,64.40
2022-10-14T10:01:28.953Z,65.70
2022-10-14T10:03:57.021Z,65.80
2022-10-14T10:06:26.727Z,67.20
2022-10-14T10:08:54.021Z,67.90
2022-10-14T10:11:38.323Z,69.10
2022-10-14T10:14:25.769Z,70.10
2022-10-14T10:17:13.198Z,68.90
2022-10-14T10:19:47.154Z,67.80
2022-10-14T10:22:29.133Z,64.90
2022-10-14T10:25:02.701Z,62.60
2022-10-14T10:27:40.436Z,61.20
2022-10-14T10:30:28.782Z,60.50
2022-10-14T10:33:14.567Z,60.40
2022-10-14T10:36:03.486Z,62.20
2022-10-14T10:38:57.330Z,65.10
2022-10-14T10:41:46.310Z,65.80
2022-10-14T10:44:41.545Z,64.70
2022-10-14T10:47:31.204Z,65.40
2022-10-14T10:50:17.522Z,67.70
2022-10-14T10:53:16.445Z,70.10
2022-10-14T10:56:20.595Z,71.20
2022-10-14T10:59:03.742Z,74.00
2022-10-14T11:02:09.957Z,76.90
2022-10-14T11:05:03.136Z,78.80
2022-10-14T11:07:41.545Z,80.90
2022-10-14T11:10:12.066Z,83.70
2022-10-14T11:13:00.121Z,86.00
2022-10-14T11:16:13.056Z,85.70
2022-10-14T11:19:02.675Z,82.30
2022-10-14T11:21:43.058Z,82.80
2022-10-14T11:24:19.491Z,85.30
2022-10-14T11:26:46.888Z,88.20
2022-10-14T11:29:23.614Z,90.00
2022-10-14T11:31:54.212Z,90.10
2022-10-14T11:34:27.834Z,89.80
2022-10-14T11:37:33.941Z,90.20
2022-10-14T11:40:22.914Z,91.00
2022-10-14T11:43:16.551Z,91.40
2022-10-14T11:45:55.096Z,92.00
2022-10-14T11:48:50.918Z,92.90
2022-10-14T11:51:46.157Z,94.10
2022-10-14T11:54:38.438Z,94.80
2022-10-14T11:57:23.960Z,95.90
2022-10-14T11:59:56.327Z,96.80
2022-10-14T12:02:51.083Z,98.00
2022-10-14T12:05:43.322Z,99.00
2022-10-14T12:08:24.654Z,99.30
2022-10-14T12:11:07.057Z,99.20
2022-10-14T12:13:48.295Z,99.20
2022-10-14T12:16:18.359Z,98.90
2022-10-14T12:18:50.467Z,98.90
2022-10-14T12:21:24.175Z,99.10
2022-10-14T12:24:10.787Z,99.00
2022-10-14T12:26:40.977Z,99.00
2022-10-14T12:29:16.100Z,98.60
2022-10-14T12:32:05.711Z,98.60
2022-10-14T12:34:38.879Z,98.60
2022-10-14T12:37:24.543Z,98.70
2022-10-14T12:40:15.415Z,99.10
2022-10-14T12:43:01.740Z,98.80
2022-10-14T12:45:31.949Z,98.90
2022-10-14T12:48:18.387Z,98.40
2022-10-14T12:50:48.845Z,98.40
2022-10-14T12:53:23.987Z,98.60
2022-10-14T12:55:55.227Z,98.80
2022-10-14T12:58:40.305Z,99.10
2022-10-14T13:01:17.264Z,99.00
2022-10-14T13:03:54.206Z,99.70
2022-10-14T13:06:41.159Z,99.80
2022-10-14T13:09:11.674Z,99.90
2022-10-14T13:11:44.350Z,99.90
2022-10-14T13:14:29.241Z,99.90
2022-10-14T13:17:01.473Z,99.90
2022-10-14T13:19:34.767Z,99.90
2022-10-14T13:22:33.173Z,99.90
2022-10-14T13:25:11.130Z,99.90
2022-10-14T13:28:09.551Z,99.90
2022-10-14T13:30:54.895Z,99.90
2022-10-14T13:33:38.739Z,99.90
2022-10-14T13:36:34.708Z,99.90
2022-10-14T13:39:02.272Z,99.90
2022-10-14T13:41:32.541Z,99.90
2022-10-14T13:44:01.025Z,99.90
2022-10-14T13:46:42.907Z,99.90
2022-10-14T13:49:24.150Z,99.90
2022-10-14T13:51:57.190Z,99.90
2022-10-14T13:54:39.446Z,99.90
2022-10-14T13:57:42.647Z,99.90
2022-10-14T14:02:53.875Z,99.90
2022-10-14T14:05:23.676Z,99.90
2022-10-14T14:11:15.045Z,99.90
2022-10-14T14:14:04.779Z,99.90
2022-10-14T14:16:33.235Z,99.90
2022-10-14T14:19:08.289Z,99.90
2022-10-14T14:21:45.469Z,99.90
2022-10-14T14:24:25.089Z,99.90
2022-10-14T14:26:55.228Z,99.90
2022-10-14T14:29:31.341Z,99.90
2022-10-14T14:32:06.604Z,99.90
2022-10-14T14:34:38.609Z,99.90
2022-10-14T14:37:53.389Z,99.90
2022-10-14T14:40:21.894Z,99.90
2022-10-14T14:42:55.086Z,99.90
2022-10-14T14:45:24.031Z,99.90
2022-10-14T14:47:57.698Z,99.90
2022-10-14T14:50:32.787Z,99.90
2022-10-14T14:53:11.038Z,99.90
2022-10-14T14:56:00.602Z,99.90
2022-10-14T14:58:29.815Z,99.90
2022-10-14T15:01:00.535Z,99.90
2022-10-14T15:03:31.198Z,99.90
2022-10-14T15:06:04.022Z,99.90
2022-10-14T15:08:36.684Z,99.90
2022-10-14T15:11:05.554Z,99.90
2022-10-14T15:13:38.342Z,99.90
2022-10-14T15:16:07.197Z,99.90
2022-10-14T15:18:34.304Z,99.90
2022-10-14T15:21:18.481Z,99.90
2022-10-14T15:23:48.769Z,99.90
2022-10-14T15:26:31.598Z,99.90
2022-10-14T15:29:08.073Z,99.90
2022-10-14T15:31:37.726Z,99.90
2022-10-14T15:34:21.953Z,99.90
2022-10-14T15:36:51.105Z,99.90
2022-10-14T15:39:20.182Z,99.90
2022-10-14T15:41:47.528Z,99.90
2022-10-14T15:44:16.217Z,99.90
2022-10-14T15:46:45.236Z,99.90
2022-10-14T15:49:18.100Z,99.90
2022-10-14T15:51:45.962Z,99.90
2022-10-14T15:54:13.057Z,99.90
2022-10-14T15:56:40.230Z,99.90
2022-10-14T15:59:07.786Z,99.90
2022-10-14T16:01:38.647Z,99.90
2022-10-14T16:04:16.897Z,99.90
2022-10-14T16:09:36.622Z,99.90
2022-10-14T16:12:08.421Z,99.90
2022-10-14T16:14:35.693Z,99.90
2022-10-14T16:17:03.240Z,99.90
2022-10-14T16:19:30.497Z,99.90
2022-10-14T16:21:58.262Z,99.90
2022-10-14T16:24:25.479Z,99.90
2022-10-14T16:26:53.177Z,99.90
2022-10-14T16:29:21.003Z,99.90
2022-10-14T16:31:48.701Z,99.90
2022-10-14T16:34:17.686Z,99.90
2022-10-14T16:36:48.969Z,99.90
2022-10-14T16:39:17.111Z,99.90
2022-10-14T16:41:44.898Z,99.90
2022-10-14T16:44:21.356Z,99.90
2022-10-14T16:46:48.989Z,99.90
2022-10-14T16:49:16.700Z,99.90
2022-10-14T16:51:44.263Z,99.90
2022-10-14T16:54:12.414Z,99.90
2022-10-14T16:56:40.406Z,99.90
2022-10-14T16:59:10.646Z,99.90
2022-10-14T17:01:38.069Z,99.90
2022-10-14T17:04:06.318Z,99.90
2022-10-14T17:06:33.625Z,99.90
2022-10-14T17:09:10.933Z,99.90
2022-10-14T17:11:38.360Z,99.90
2022-10-14T17:14:08.448Z,99.90
2022-10-14T17:16:35.502Z,99.90
2022-10-14T17:19:02.977Z,99.90
2022-10-14T17:21:35.214Z,99.90
2022-10-14T17:24:02.614Z,99.90
2022-10-14T17:26:33.969Z,99.90
2022-10-14T17:29:01.669Z,99.90
2022-10-14T17:31:44.391Z,99.90
2022-10-14T17:34:14.072Z,99.90
2022-10-14T17:36:41.742Z,99.90
2022-10-14T17:39:15.396Z,99.90
2022-10-14T17:41:50.238Z,99.90
2022-10-14T17:44:17.272Z,99.90
2022-10-14T17:46:50.039Z,99.90
2022-10-14T17:49:17.350Z,99.90
2022-10-14T17:51:44.440Z,99.90
2022-10-14T17:54:12.489Z,99.90
2022-10-14T17:56:40.354Z,99.90
2022-10-14T17:59:10.604Z,99.90
2022-10-14T18:01:57.817Z,99.90
2022-10-14T18:04:27.597Z,99.90
2022-10-14T18:06:54.623Z,99.90
2022-10-14T18:09:24.194Z,99.90
2022-10-14T18:12:09.237Z,99.90
2022-10-14T18:14:39.385Z,99.90
2022-10-14T18:17:10.234Z,99.90
2022-10-14T18:19:37.509Z,99.90
2022-10-14T18:22:05.802Z,99.90
2022-10-14T18:24:33.989Z,99.90
2022-10-14T18:27:01.075Z,99.90
2022-10-14T18:29:28.311Z,99.90
2022-10-14T18:32:03.741Z,99.90
2022-10-14T18:34:31.510Z,99.90
2022-10-14T18:37:08.898Z,99.90
2022-10-14T18:39:36.288Z,99.90
2022-10-14T18:42:03.834Z,99.90
2022-10-14T18:44:31.293Z,99.90
2022-10-14T18:47:05.816Z,99.90
2022-10-14T18:49:39.964Z,99.90
2022-10-14T18:52:08.363Z,99.90
2022-10-14T18:54:38.430Z,99.90
2022-10-14T18:57:07.843Z,99.90
2022-10-14T18:59:35.267Z,99.90
2022-10-14T19:02:02.561Z,99.90
2022-10-14T19:04:29.648Z,99.90
2022-10-14T19:07:07.979Z,99.90
2022-10-14T19:09:37.509Z,99.90
2022-10-14T19:12:13.899Z,99.90
2022-10-14T19:17:37.325Z,99.90
2022-10-14T19:20:09.253Z,99.90
2022-10-14T19:22:36.727Z,99.90
2022-10-14T19:25:14.243Z,99.90
2022-10-14T19:27:42.146Z,99.90
2022-10-14T19:30:17.335Z,99.90
2022-10-14T19:32:46.965Z,99.90
2022-10-14T19:35:14.084Z,99.90
2022-10-14T19:37:41.157Z,99.90
2022-10-14T19:40:11.487Z,99.90
2022-10-14T19:42:38.729Z,99.90
2022-10-14T19:45:06.390Z,99.90
2022-10-14T19:47:33.764Z,99.90
2022-10-14T19:50:00.803Z,99.90
2022-10-14T19:52:30.394Z,99.90
2022-10-14T19:55:16.964Z,99.90
2022-10-14T19:57:44.159Z,99.90
2022-10-14T20:00:16.593Z,99.90
2022-10-14T20:02:47.466Z,99.90
2022-10-14T20:05:17.113Z,99.90
2022-10-14T20:07:44.712Z,99.90
2022-10-14T20:10:12.934Z,99.90
2022-10-14T20:12:40.768Z,99.90
2022-10-14T20:15:09.300Z,99.90
2022-10-14T20:17:36.968Z,99.90
2022-10-14T20:20:08.546Z,99.90
2022-10-14T20:22:35.603Z,99.90
2022-10-14T20:25:03.775Z,99.90
2022-10-14T20:27:31.231Z,99.90
2022-10-14T20:29:58.329Z,99.90
2022-10-14T20:32:26.010Z,99.90
2022-10-14T20:37:34.814Z,99.90
2022-10-14T20:40:02.107Z,99.90
2022-10-14T20:42:29.204Z,99.90
2022-10-14T20:44:57.907Z,99.90
2022-10-14T20:47:34.645Z,99.90
2022-10-14T20:50:02.018Z,99.90
2022-10-14T20:52:29.275Z,99.90
2022-10-14T20:54:58.879Z,99.90
2022-10-14T20:57:29.299Z,99.90
2022-10-14T20:59:56.897Z,99.90
2022-10-14T21:02:23.977Z,99.90
2022-10-14T21:04:52.608Z,99.90
2022-10-14T21:07:22.335Z,99.90
2022-10-14T21:09:49.604Z,99.90
2022-10-14T21:12:20.009Z,99.90
2022-10-14T21:14:47.284Z,99.90
2022-10-14T21:17:16.887Z,99.90
2022-10-14T21:19:47.549Z,99.90
2022-10-14T21:22:14.781Z,99.90
2022-10-14T21:24:42.155Z,99.90
2022-10-14T21:27:09.443Z,99.90
2022-10-14T21:29:41.805Z,99.90
2022-10-14T21:32:08.944Z,99.90
2022-10-14T21:34:36.664Z,99.90
2022-10-14T21:37:03.813Z,99.90
2022-10-14T21:39:33.542Z,99.90
2022-10-14T21:42:01.138Z,99.90
2022-10-14T21:44:28.328Z,99.90
2022-10-14T21:46:57.641Z,99.90
2022-10-14T21:49:25.246Z,99.90
2022-10-14T21:51:52.413Z,99.90
2022-10-14T21:54:19.476Z,99.90
2022-10-14T21:56:47.065Z,99.90
2022-10-14T21:59:14.348Z,99.90
2022-10-14T22:01:43.901Z,99.90
2022-10-14T22:04:11.699Z,99.90
2022-10-14T22:06:38.900Z,99.90
2022-10-14T22:09:09.316Z,99.90
2022-10-14T22:11:41.651Z,99.90
2022-10-14T22:14:16.165Z,99.90
2022-10-14T22:16:46.813Z,99.90
2022-10-14T22:19:14.166Z,99.90
2022-10-14T22:21:43.470Z,99.90
2022-10-14T22:24:10.935Z,99.90
2022-10-14T22:26:38.575Z,99.90
2022-10-14T22:29:13.454Z,99.90
2022-10-14T22:31:43.772Z,99.90
2022-10-14T22:34:13.876Z,99.90
2022-10-14T22:36:43.484Z,99.90
2022-10-14T22:39:16.395Z,99.90
2022-10-14T22:41:43.592Z,99.90
2022-10-14T22:44:15.347Z,99.90
2022-10-14T22:46:42.756Z,99.90
2022-10-14T22:49:10.013Z,99.90
2022-10-14T22:51:40.027Z,99.90
2022-10-14T22:54:07.565Z,99.90
2022-10-14T22:56:34.548Z,99.90
2022-10-14T22:59:06.818Z,99.90
2022-10-14T23:01:37.866Z,99.90
2022-10-14T23:04:05.130Z,99.90
2022-10-14T23:06:32.199Z,99.90
2022-10-14T23:08:59.978Z,99.90
2022-10-14T23:11:33.319Z,99.90
2022-10-14T23:14:03.062Z,99.90
2022-10-14T23:16:34.582Z,99.90
2022-10-14T23:19:07.339Z,99.90
2022-10-14T23:21:37.209Z,99.90
2022-10-14T23:24:08.157Z,99.90
2022-10-14T23:26:37.783Z,99.90
2022-10-14T23:29:09.192Z,99.90
2022-10-14T23:31:40.206Z,99.90
2022-10-14T23:34:14.040Z,99.90
2022-10-14T23:36:42.168Z,99.90
2022-10-14T23:39:12.231Z,99.90
2022-10-14T23:41:39.377Z,99.90
2022-10-14T23:44:06.520Z,99.90
2022-10-14T23:46:34.032Z,99.90
2022-10-14T23:49:07.243Z,99.90
2022-10-14T23:51:35.746Z,99.90
2022-10-14T23:54:05.239Z,99.90
2022-10-14T23:56:34.842Z,99.90
2022-10-14T23:59:02.338Z,99.90
